sensor_id;sensor_type;location;lat;lon;timestamp;P1;durP1;ratioP1;P2;durP2;ratioP2
32152;SDS011;18656;50.580;11.392;2023-09-18T00:00:50;9.93;;;6.10;;
32152;SDS011;18656;50.580;11.392;2023-09-18T00:03:18;7.97;;;7.18;;
32152;SDS011;18656;50.580;11.392;2023-09-18T00:05:47;9.65;;;6.03;;
32152;SDS011;18656;50.580;11.392;2023-09-18T00:08:15;6.22;;;5.45;;
32152;SDS011;18656;50.580;11.392;2023-09-18T00:10:42;7.03;;;6.32;;
32152;SDS011;18656;50.580;11.392;2023-09-18T00:13:10;6.28;;;5.80;;
32152;SDS011;18656;50.580;11.392;2023-09-18T00:15:38;6.68;;;5.93;;
32152;SDS011;18656;50.580;11.392;2023-09-18T00:18:07;7.22;;;6.63;;
32152;SDS011;18656;50.580;11.392;2023-09-18T00:20:34;7.95;;;6.60;;
32152;SDS011;18656;50.580;11.392;2023-09-18T00:23:01;7.15;;;6.45;;
32152;SDS011;18656;50.580;11.392;2023-09-18T00:25:29;7.43;;;6.63;;
32152;SDS011;18656;50.580;11.392;2023-09-18T00:27:57;8.57;;;6.70;;
32152;SDS011;18656;50.580;11.392;2023-09-18T00:30:24;7.20;;;6.20;;
32152;SDS011;18656;50.580;11.392;2023-09-18T00:32:51;7.18;;;6.32;;
32152;SDS011;18656;50.580;11.392;2023-09-18T00:35:19;6.78;;;6.18;;
32152;SDS011;18656;50.580;11.392;2023-09-18T00:37:46;6.78;;;6.03;;
32152;SDS011;18656;50.580;11.392;2023-09-18T00:40:13;6.50;;;6.00;;
32152;SDS011;18656;50.580;11.392;2023-09-18T00:42:41;7.30;;;6.70;;
32152;SDS011;18656;50.580;11.392;2023-09-18T00:45:08;7.18;;;6.13;;
32152;SDS011;18656;50.580;11.392;2023-09-18T00:47:36;7.35;;;6.65;;
32152;SDS011;18656;50.580;11.392;2023-09-18T00:50:04;8.82;;;7.20;;
32152;SDS011;18656;50.580;11.392;2023-09-18T00:52:31;7.30;;;6.60;;
32152;SDS011;18656;50.580;11.392;2023-09-18T00:55:00;6.85;;;6.13;;
32152;SDS011;18656;50.580;11.392;2023-09-18T00:57:28;9.48;;;6.57;;
32152;SDS011;18656;50.580;11.392;2023-09-18T00:59:55;6.93;;;6.32;;
32152;SDS011;18656;50.580;11.392;2023-09-18T01:02:23;6.32;;;5.65;;
32152;SDS011;18656;50.580;11.392;2023-09-18T01:04:50;7.50;;;6.18;;
32152;SDS011;18656;50.580;11.392;2023-09-18T01:07:17;6.47;;;5.95;;
32152;SDS011;18656;50.580;11.392;2023-09-18T01:09:45;7.65;;;6.07;;
32152;SDS011;18656;50.580;11.392;2023-09-18T01:14:44;6.85;;;6.18;;
32152;SDS011;18656;50.580;11.392;2023-09-18T01:17:16;6.88;;;6.38;;
32152;SDS011;18656;50.580;11.392;2023-09-18T01:19:44;7.00;;;6.40;;
32152;SDS011;18656;50.580;11.392;2023-09-18T01:22:19;6.90;;;5.80;;
32152;SDS011;18656;50.580;11.392;2023-09-18T01:24:48;6.55;;;5.90;;
32152;SDS011;18656;50.580;11.392;2023-09-18T01:27:16;8.40;;;6.00;;
32152;SDS011;18656;50.580;11.392;2023-09-18T01:29:44;6.50;;;6.00;;
32152;SDS011;18656;50.580;11.392;2023-09-18T01:32:11;9.70;;;6.03;;
32152;SDS011;18656;50.580;11.392;2023-09-18T01:34:46;7.70;;;6.10;;
32152;SDS011;18656;50.580;11.392;2023-09-18T01:37:15;7.60;;;7.00;;
32152;SDS011;18656;50.580;11.392;2023-09-18T01:39:44;8.30;;;6.35;;
32152;SDS011;18656;50.580;11.392;2023-09-18T01:42:11;8.50;;;7.00;;
32152;SDS011;18656;50.580;11.392;2023-09-18T01:44:39;7.13;;;6.07;;
32152;SDS011;18656;50.580;11.392;2023-09-18T01:47:07;11.20;;;6.57;;
32152;SDS011;18656;50.580;11.392;2023-09-18T01:49:35;7.30;;;6.47;;
32152;SDS011;18656;50.580;11.392;2023-09-18T01:52:03;7.00;;;6.30;;
32152;SDS011;18656;50.580;11.392;2023-09-18T01:54:31;8.70;;;5.90;;
32152;SDS011;18656;50.580;11.392;2023-09-18T01:56:59;6.55;;;6.05;;
32152;SDS011;18656;50.580;11.392;2023-09-18T01:59:26;6.93;;;6.35;;
32152;SDS011;18656;50.580;11.392;2023-09-18T02:01:54;10.50;;;6.10;;
32152;SDS011;18656;50.580;11.392;2023-09-18T02:04:22;8.52;;;6.80;;
32152;SDS011;18656;50.580;11.392;2023-09-18T02:07:10;7.85;;;7.00;;
32152;SDS011;18656;50.580;11.392;2023-09-18T02:09:37;7.68;;;6.97;;
32152;SDS011;18656;50.580;11.392;2023-09-18T02:12:05;7.57;;;6.75;;
32152;SDS011;18656;50.580;11.392;2023-09-18T02:14:32;8.63;;;6.22;;
32152;SDS011;18656;50.580;11.392;2023-09-18T02:17:00;7.15;;;6.53;;
32152;SDS011;18656;50.580;11.392;2023-09-18T02:19:27;7.22;;;6.53;;
32152;SDS011;18656;50.580;11.392;2023-09-18T02:21:58;8.82;;;6.85;;
32152;SDS011;18656;50.580;11.392;2023-09-18T02:24:25;6.70;;;6.10;;
32152;SDS011;18656;50.580;11.392;2023-09-18T02:26:52;10.68;;;7.13;;
32152;SDS011;18656;50.580;11.392;2023-09-18T02:29:20;8.35;;;6.78;;
32152;SDS011;18656;50.580;11.392;2023-09-18T02:31:47;7.07;;;6.30;;
32152;SDS011;18656;50.580;11.392;2023-09-18T02:34:14;7.47;;;6.70;;
32152;SDS011;18656;50.580;11.392;2023-09-18T02:36:41;7.07;;;6.38;;
32152;SDS011;18656;50.580;11.392;2023-09-18T02:39:09;7.72;;;6.90;;
32152;SDS011;18656;50.580;11.392;2023-09-18T02:41:36;7.70;;;6.93;;
32152;SDS011;18656;50.580;11.392;2023-09-18T02:44:04;7.57;;;6.78;;
32152;SDS011;18656;50.580;11.392;2023-09-18T02:46:31;6.75;;;6.15;;
32152;SDS011;18656;50.580;11.392;2023-09-18T02:48:58;6.97;;;6.32;;
32152;SDS011;18656;50.580;11.392;2023-09-18T02:51:25;7.13;;;6.55;;
32152;SDS011;18656;50.580;11.392;2023-09-18T02:53:53;7.95;;;7.25;;
32152;SDS011;18656;50.580;11.392;2023-09-18T02:56:20;7.85;;;7.00;;
32152;SDS011;18656;50.580;11.392;2023-09-18T02:58:47;7.57;;;6.90;;
32152;SDS011;18656;50.580;11.392;2023-09-18T03:01:15;8.02;;;7.22;;
32152;SDS011;18656;50.580;11.392;2023-09-18T03:03:43;9.98;;;6.93;;
32152;SDS011;18656;50.580;11.392;2023-09-18T03:06:11;7.00;;;6.28;;
32152;SDS011;18656;50.580;11.392;2023-09-18T03:08:39;7.90;;;6.82;;
32152;SDS011;18656;50.580;11.392;2023-09-18T03:11:13;7.18;;;6.47;;
32152;SDS011;18656;50.580;11.392;2023-09-18T03:13:44;8.57;;;6.28;;
32152;SDS011;18656;50.580;11.392;2023-09-18T03:16:12;6.88;;;6.38;;
32152;SDS011;18656;50.580;11.392;2023-09-18T03:18:42;6.75;;;6.18;;
32152;SDS011;18656;50.580;11.392;2023-09-18T03:21:10;6.80;;;6.20;;
32152;SDS011;18656;50.580;11.392;2023-09-18T03:23:37;8.10;;;7.40;;
32152;SDS011;18656;50.580;11.392;2023-09-18T03:26:04;8.05;;;7.22;;
32152;SDS011;18656;50.580;11.392;2023-09-18T03:28:32;9.10;;;7.57;;
32152;SDS011;18656;50.580;11.392;2023-09-18T03:30:59;6.70;;;6.13;;
32152;SDS011;18656;50.580;11.392;2023-09-18T03:33:26;11.57;;;6.90;;
32152;SDS011;18656;50.580;11.392;2023-09-18T03:35:54;8.50;;;6.43;;
32152;SDS011;18656;50.580;11.392;2023-09-18T03:38:22;7.32;;;6.63;;
32152;SDS011;18656;50.580;11.392;2023-09-18T03:40:51;8.38;;;6.80;;
32152;SDS011;18656;50.580;11.392;2023-09-18T03:43:18;6.90;;;6.22;;
32152;SDS011;18656;50.580;11.392;2023-09-18T03:45:46;8.55;;;6.43;;
32152;SDS011;18656;50.580;11.392;2023-09-18T03:48:14;6.82;;;6.00;;
32152;SDS011;18656;50.580;11.392;2023-09-18T03:50:41;7.43;;;6.72;;
32152;SDS011;18656;50.580;11.392;2023-09-18T03:53:09;10.32;;;6.47;;
32152;SDS011;18656;50.580;11.392;2023-09-18T03:55:37;11.00;;;6.25;;
32152;SDS011;18656;50.580;11.392;2023-09-18T03:58:04;8.77;;;6.47;;
32152;SDS011;18656;50.580;11.392;2023-09-18T04:00:32;7.68;;;6.72;;
32152;SDS011;18656;50.580;11.392;2023-09-18T04:02:59;7.28;;;5.70;;
32152;SDS011;18656;50.580;11.392;2023-09-18T04:05:27;9.40;;;6.47;;
32152;SDS011;18656;50.580;11.392;2023-09-18T04:07:55;7.28;;;6.57;;
32152;SDS011;18656;50.580;11.392;2023-09-18T04:10:22;7.40;;;6.57;;
32152;SDS011;18656;50.580;11.392;2023-09-18T04:12:50;7.25;;;6.65;;
32152;SDS011;18656;50.580;11.392;2023-09-18T04:15:18;8.07;;;7.28;;
32152;SDS011;18656;50.580;11.392;2023-09-18T04:17:46;8.23;;;7.30;;
32152;SDS011;18656;50.580;11.392;2023-09-18T04:20:14;7.95;;;7.10;;
32152;SDS011;18656;50.580;11.392;2023-09-18T04:22:42;9.75;;;6.90;;
32152;SDS011;18656;50.580;11.392;2023-09-18T04:25:11;8.10;;;6.90;;
32152;SDS011;18656;50.580;11.392;2023-09-18T04:27:38;8.05;;;7.03;;
32152;SDS011;18656;50.580;11.392;2023-09-18T04:30:06;7.75;;;7.05;;
32152;SDS011;18656;50.580;11.392;2023-09-18T04:32:39;9.75;;;7.63;;
32152;SDS011;18656;50.580;11.392;2023-09-18T04:35:07;8.15;;;6.78;;
32152;SDS011;18656;50.580;11.392;2023-09-18T04:37:36;15.07;;;7.55;;
32152;SDS011;18656;50.580;11.392;2023-09-18T04:40:05;13.10;;;7.25;;
32152;SDS011;18656;50.580;11.392;2023-09-18T04:42:36;18.60;;;8.10;;
32152;SDS011;18656;50.580;11.392;2023-09-18T04:45:04;8.13;;;7.38;;
32152;SDS011;18656;50.580;11.392;2023-09-18T04:47:31;12.65;;;8.40;;
32152;SDS011;18656;50.580;11.392;2023-09-18T04:49:59;17.50;;;8.60;;
32152;SDS011;18656;50.580;11.392;2023-09-18T04:52:26;15.32;;;8.60;;
32152;SDS011;18656;50.580;11.392;2023-09-18T04:54:54;12.35;;;8.80;;
32152;SDS011;18656;50.580;11.392;2023-09-18T04:57:21;15.40;;;8.15;;
32152;SDS011;18656;50.580;11.392;2023-09-18T04:59:48;14.20;;;8.18;;
32152;SDS011;18656;50.580;11.392;2023-09-18T05:02:30;8.63;;;7.50;;
32152;SDS011;18656;50.580;11.392;2023-09-18T05:04:58;10.00;;;7.40;;
32152;SDS011;18656;50.580;11.392;2023-09-18T05:07:25;10.02;;;7.55;;
32152;SDS011;18656;50.580;11.392;2023-09-18T05:09:52;9.88;;;7.57;;
32152;SDS011;18656;50.580;11.392;2023-09-18T05:12:20;9.38;;;7.03;;
32152;SDS011;18656;50.580;11.392;2023-09-18T05:14:48;10.43;;;7.00;;
32152;SDS011;18656;50.580;11.392;2023-09-18T05:17:17;14.70;;;9.10;;
32152;SDS011;18656;50.580;11.392;2023-09-18T05:19:44;13.75;;;10.30;;
32152;SDS011;18656;50.580;11.392;2023-09-18T05:22:12;26.77;;;10.68;;
32152;SDS011;18656;50.580;11.392;2023-09-18T05:24:39;14.10;;;9.43;;
32152;SDS011;18656;50.580;11.392;2023-09-18T05:27:07;15.05;;;9.45;;
32152;SDS011;18656;50.580;11.392;2023-09-18T05:29:34;17.17;;;10.50;;
32152;SDS011;18656;50.580;11.392;2023-09-18T05:32:03;13.65;;;9.50;;
32152;SDS011;18656;50.580;11.392;2023-09-18T05:34:31;18.50;;;10.70;;
32152;SDS011;18656;50.580;11.392;2023-09-18T05:36:58;9.80;;;8.68;;
32152;SDS011;18656;50.580;11.392;2023-09-18T05:39:25;12.05;;;8.52;;
32152;SDS011;18656;50.580;11.392;2023-09-18T05:41:53;22.40;;;10.18;;
32152;SDS011;18656;50.580;11.392;2023-09-18T05:44:20;17.90;;;11.63;;
32152;SDS011;18656;50.580;11.392;2023-09-18T05:46:47;21.88;;;12.27;;
32152;SDS011;18656;50.580;11.392;2023-09-18T05:49:15;16.48;;;10.90;;
32152;SDS011;18656;50.580;11.392;2023-09-18T05:51:42;19.70;;;11.10;;
32152;SDS011;18656;50.580;11.392;2023-09-18T05:54:09;10.40;;;7.63;;
32152;SDS011;18656;50.580;11.392;2023-09-18T05:56:37;9.90;;;7.50;;
32152;SDS011;18656;50.580;11.392;2023-09-18T05:59:04;15.88;;;14.27;;
32152;SDS011;18656;50.580;11.392;2023-09-18T06:01:32;14.25;;;12.75;;
32152;SDS011;18656;50.580;11.392;2023-09-18T06:03:59;4.90;;;4.50;;
32152;SDS011;18656;50.580;11.392;2023-09-18T06:06:30;6.07;;;4.75;;
32152;SDS011;18656;50.580;11.392;2023-09-18T06:08:57;11.75;;;4.80;;
32152;SDS011;18656;50.580;11.392;2023-09-18T06:11:26;6.55;;;5.90;;
32152;SDS011;18656;50.580;11.392;2023-09-18T06:13:53;4.60;;;3.88;;
32152;SDS011;18656;50.580;11.392;2023-09-18T06:16:21;4.22;;;3.92;;
32152;SDS011;18656;50.580;11.392;2023-09-18T06:18:48;2.92;;;2.70;;
32152;SDS011;18656;50.580;11.392;2023-09-18T06:21:16;2.90;;;2.80;;
32152;SDS011;18656;50.580;11.392;2023-09-18T06:23:43;3.17;;;2.97;;
32152;SDS011;18656;50.580;11.392;2023-09-18T06:26:11;2.47;;;2.38;;
32152;SDS011;18656;50.580;11.392;2023-09-18T06:28:38;2.45;;;2.28;;
32152;SDS011;18656;50.580;11.392;2023-09-18T06:31:05;2.42;;;2.30;;
32152;SDS011;18656;50.580;11.392;2023-09-18T06:33:33;2.63;;;2.45;;
32152;SDS011;18656;50.580;11.392;2023-09-18T06:36:00;3.25;;;1.83;;
32152;SDS011;18656;50.580;11.392;2023-09-18T06:38:28;2.35;;;2.08;;
32152;SDS011;18656;50.580;11.392;2023-09-18T06:40:55;2.45;;;2.10;;
32152;SDS011;18656;50.580;11.392;2023-09-18T06:43:23;2.58;;;2.42;;
32152;SDS011;18656;50.580;11.392;2023-09-18T06:45:53;2.50;;;2.30;;
32152;SDS011;18656;50.580;11.392;2023-09-18T06:50:51;2.08;;;1.98;;
32152;SDS011;18656;50.580;11.392;2023-09-18T06:53:20;2.78;;;2.47;;
32152;SDS011;18656;50.580;11.392;2023-09-18T06:55:50;2.17;;;1.90;;
32152;SDS011;18656;50.580;11.392;2023-09-18T06:58:17;8.10;;;2.63;;
32152;SDS011;18656;50.580;11.392;2023-09-18T07:00:44;2.00;;;1.90;;
32152;SDS011;18656;50.580;11.392;2023-09-18T07:03:12;2.28;;;2.17;;
32152;SDS011;18656;50.580;11.392;2023-09-18T07:05:40;2.10;;;2.00;;
32152;SDS011;18656;50.580;11.392;2023-09-18T07:08:08;2.38;;;2.15;;
32152;SDS011;18656;50.580;11.392;2023-09-18T07:10:38;2.30;;;2.20;;
32152;SDS011;18656;50.580;11.392;2023-09-18T07:13:06;2.30;;;2.20;;
32152;SDS011;18656;50.580;11.392;2023-09-18T07:15:33;2.22;;;2.03;;
32152;SDS011;18656;50.580;11.392;2023-09-18T07:18:01;2.20;;;2.03;;
32152;SDS011;18656;50.580;11.392;2023-09-18T07:20:28;2.53;;;2.40;;
32152;SDS011;18656;50.580;11.392;2023-09-18T07:22:56;3.28;;;2.30;;
32152;SDS011;18656;50.580;11.392;2023-09-18T07:25:23;2.13;;;1.95;;
32152;SDS011;18656;50.580;11.392;2023-09-18T07:27:51;2.58;;;2.38;;
32152;SDS011;18656;50.580;11.392;2023-09-18T07:30:18;2.50;;;2.30;;
32152;SDS011;18656;50.580;11.392;2023-09-18T07:32:48;2.30;;;2.10;;
32152;SDS011;18656;50.580;11.392;2023-09-18T07:35:15;2.53;;;2.33;;
32152;SDS011;18656;50.580;11.392;2023-09-18T07:37:43;2.45;;;2.20;;
32152;SDS011;18656;50.580;11.392;2023-09-18T07:40:13;2.58;;;2.38;;
32152;SDS011;18656;50.580;11.392;2023-09-18T07:42:45;2.25;;;2.15;;
32152;SDS011;18656;50.580;11.392;2023-09-18T07:45:15;2.40;;;2.30;;
32152;SDS011;18656;50.580;11.392;2023-09-18T07:47:43;3.03;;;2.35;;
32152;SDS011;18656;50.580;11.392;2023-09-18T07:50:12;2.40;;;2.20;;
32152;SDS011;18656;50.580;11.392;2023-09-18T07:52:40;2.80;;;2.63;;
32152;SDS011;18656;50.580;11.392;2023-09-18T07:55:08;2.47;;;2.28;;
32152;SDS011;18656;50.580;11.392;2023-09-18T07:57:36;3.00;;;2.75;;
32152;SDS011;18656;50.580;11.392;2023-09-18T08:00:06;3.28;;;2.30;;
32152;SDS011;18656;50.580;11.392;2023-09-18T08:02:39;2.80;;;2.60;;
32152;SDS011;18656;50.580;11.392;2023-09-18T08:05:06;2.80;;;2.60;;
32152;SDS011;18656;50.580;11.392;2023-09-18T08:07:35;2.88;;;2.67;;
32152;SDS011;18656;50.580;11.392;2023-09-18T08:10:03;2.78;;;2.58;;
32152;SDS011;18656;50.580;11.392;2023-09-18T08:12:32;3.00;;;2.38;;
32152;SDS011;18656;50.580;11.392;2023-09-18T08:15:00;4.95;;;2.50;;
32152;SDS011;18656;50.580;11.392;2023-09-18T08:17:29;4.75;;;2.45;;
32152;SDS011;18656;50.580;11.392;2023-09-18T08:19:57;5.30;;;2.75;;
32152;SDS011;18656;50.580;11.392;2023-09-18T08:22:24;4.40;;;2.47;;
32152;SDS011;18656;50.580;11.392;2023-09-18T08:24:52;2.70;;;2.50;;
32152;SDS011;18656;50.580;11.392;2023-09-18T08:27:19;3.05;;;2.38;;
32152;SDS011;18656;50.580;11.392;2023-09-18T08:29:46;2.05;;;1.95;;
32152;SDS011;18656;50.580;11.392;2023-09-18T08:32:14;2.45;;;2.10;;
32152;SDS011;18656;50.580;11.392;2023-09-18T08:34:41;4.57;;;2.35;;
32152;SDS011;18656;50.580;11.392;2023-09-18T08:37:08;2.10;;;2.00;;
32152;SDS011;18656;50.580;11.392;2023-09-18T08:39:36;3.45;;;2.70;;
32152;SDS011;18656;50.580;11.392;2023-09-18T08:42:04;2.30;;;2.20;;
32152;SDS011;18656;50.580;11.392;2023-09-18T08:44:32;2.38;;;2.17;;
32152;SDS011;18656;50.580;11.392;2023-09-18T08:46:59;2.75;;;2.55;;
32152;SDS011;18656;50.580;11.392;2023-09-18T08:49:27;3.55;;;2.30;;
32152;SDS011;18656;50.580;11.392;2023-09-18T08:51:56;3.55;;;2.75;;
32152;SDS011;18656;50.580;11.392;2023-09-18T08:54:24;3.90;;;2.20;;
32152;SDS011;18656;50.580;11.392;2023-09-18T08:56:51;4.80;;;2.60;;
32152;SDS011;18656;50.580;11.392;2023-09-18T08:59:19;5.65;;;2.72;;
32152;SDS011;18656;50.580;11.392;2023-09-18T09:01:48;6.75;;;2.22;;
32152;SDS011;18656;50.580;11.392;2023-09-18T09:04:15;3.25;;;2.20;;
32152;SDS011;18656;50.580;11.392;2023-09-18T09:06:42;3.95;;;3.58;;
32152;SDS011;18656;50.580;11.392;2023-09-18T09:09:10;6.15;;;3.00;;
32152;SDS011;18656;50.580;11.392;2023-09-18T09:11:39;5.97;;;2.35;;
32152;SDS011;18656;50.580;11.392;2023-09-18T09:14:13;5.00;;;2.40;;
32152;SDS011;18656;50.580;11.392;2023-09-18T09:16:49;4.18;;;2.60;;
32152;SDS011;18656;50.580;11.392;2023-09-18T09:21:57;2.25;;;2.05;;
32152;SDS011;18656;50.580;11.392;2023-09-18T09:24:41;3.65;;;2.25;;
32152;SDS011;18656;50.580;11.392;2023-09-18T09:27:09;3.28;;;1.77;;
32152;SDS011;18656;50.580;11.392;2023-09-18T09:29:37;7.82;;;2.72;;
32152;SDS011;18656;50.580;11.392;2023-09-18T09:32:15;4.57;;;2.30;;
32152;SDS011;18656;50.580;11.392;2023-09-18T09:34:43;8.23;;;2.58;;
32152;SDS011;18656;50.580;11.392;2023-09-18T09:37:12;6.38;;;2.42;;
32152;SDS011;18656;50.580;11.392;2023-09-18T09:39:47;5.95;;;2.28;;
32152;SDS011;18656;50.580;11.392;2023-09-18T09:42:16;8.00;;;2.10;;
32152;SDS011;18656;50.580;11.392;2023-09-18T09:44:44;9.73;;;2.42;;
32152;SDS011;18656;50.580;11.392;2023-09-18T09:47:12;8.88;;;2.47;;
32152;SDS011;18656;50.580;11.392;2023-09-18T09:49:47;4.30;;;2.05;;
32152;SDS011;18656;50.580;11.392;2023-09-18T09:52:18;7.22;;;2.47;;
32152;SDS011;18656;50.580;11.392;2023-09-18T09:54:48;6.15;;;2.10;;
32152;SDS011;18656;50.580;11.392;2023-09-18T09:57:16;7.43;;;2.72;;
32152;SDS011;18656;50.580;11.392;2023-09-18T09:59:43;12.88;;;2.58;;
32152;SDS011;18656;50.580;11.392;2023-09-18T10:02:10;4.82;;;2.50;;
32152;SDS011;18656;50.580;11.392;2023-09-18T10:04:41;7.70;;;2.28;;
32152;SDS011;18656;50.580;11.392;2023-09-18T10:07:09;4.03;;;2.20;;
32152;SDS011;18656;50.580;11.392;2023-09-18T10:09:39;7.65;;;2.15;;
32152;SDS011;18656;50.580;11.392;2023-09-18T10:12:10;4.40;;;2.58;;
32152;SDS011;18656;50.580;11.392;2023-09-18T10:14:37;4.60;;;2.05;;
32152;SDS011;18656;50.580;11.392;2023-09-18T10:17:25;4.65;;;2.05;;
32152;SDS011;18656;50.580;11.392;2023-09-18T10:20:01;2.80;;;1.88;;
32152;SDS011;18656;50.580;11.392;2023-09-18T10:22:38;5.60;;;2.15;;
32152;SDS011;18656;50.580;11.392;2023-09-18T10:27:37;3.58;;;2.20;;
32152;SDS011;18656;50.580;11.392;2023-09-18T10:30:07;8.07;;;2.22;;
32152;SDS011;18656;50.580;11.392;2023-09-18T10:32:40;2.58;;;1.92;;
32152;SDS011;18656;50.580;11.392;2023-09-18T10:35:08;4.68;;;2.08;;
32152;SDS011;18656;50.580;11.392;2023-09-18T10:37:38;8.18;;;2.20;;
32152;SDS011;18656;50.580;11.392;2023-09-18T10:40:05;4.75;;;1.83;;
32152;SDS011;18656;50.580;11.392;2023-09-18T10:42:35;5.63;;;2.00;;
32152;SDS011;18656;50.580;11.392;2023-09-18T10:45:04;5.78;;;2.45;;
32152;SDS011;18656;50.580;11.392;2023-09-18T10:47:32;6.93;;;2.05;;
32152;SDS011;18656;50.580;11.392;2023-09-18T10:49:59;8.25;;;2.25;;
32152;SDS011;18656;50.580;11.392;2023-09-18T10:52:27;5.22;;;1.98;;
32152;SDS011;18656;50.580;11.392;2023-09-18T10:54:55;3.85;;;1.75;;
32152;SDS011;18656;50.580;11.392;2023-09-18T10:57:22;6.43;;;2.15;;
32152;SDS011;18656;50.580;11.392;2023-09-18T10:59:50;4.43;;;2.20;;
32152;SDS011;18656;50.580;11.392;2023-09-18T11:02:21;3.95;;;1.83;;
32152;SDS011;18656;50.580;11.392;2023-09-18T11:04:50;4.93;;;2.08;;
32152;SDS011;18656;50.580;11.392;2023-09-18T11:07:20;4.68;;;2.20;;
32152;SDS011;18656;50.580;11.392;2023-09-18T11:09:48;5.65;;;1.90;;
32152;SDS011;18656;50.580;11.392;2023-09-18T11:12:16;4.60;;;1.95;;
32152;SDS011;18656;50.580;11.392;2023-09-18T11:14:45;3.03;;;1.50;;
32152;SDS011;18656;50.580;11.392;2023-09-18T11:20:03;4.00;;;1.95;;
32152;SDS011;18656;50.580;11.392;2023-09-18T11:22:36;7.13;;;2.30;;
32152;SDS011;18656;50.580;11.392;2023-09-18T11:27:54;4.65;;;2.03;;
32152;SDS011;18656;50.580;11.392;2023-09-18T11:30:22;5.47;;;2.20;;
32152;SDS011;18656;50.580;11.392;2023-09-18T11:32:50;3.97;;;2.33;;
32152;SDS011;18656;50.580;11.392;2023-09-18T11:35:18;3.92;;;1.75;;
32152;SDS011;18656;50.580;11.392;2023-09-18T11:37:45;3.17;;;1.90;;
32152;SDS011;18656;50.580;11.392;2023-09-18T11:40:32;6.30;;;1.95;;
32152;SDS011;18656;50.580;11.392;2023-09-18T11:43:20;3.10;;;1.67;;
32152;SDS011;18656;50.580;11.392;2023-09-18T11:45:52;5.95;;;2.08;;
32152;SDS011;18656;50.580;11.392;2023-09-18T11:48:21;4.03;;;1.60;;
32152;SDS011;18656;50.580;11.392;2023-09-18T11:50:51;7.88;;;1.98;;
32152;SDS011;18656;50.580;11.392;2023-09-18T11:53:20;4.57;;;1.65;;
32152;SDS011;18656;50.580;11.392;2023-09-18T11:55:48;4.78;;;2.00;;
32152;SDS011;18656;50.580;11.392;2023-09-18T11:58:15;6.38;;;2.15;;
32152;SDS011;18656;50.580;11.392;2023-09-18T12:00:42;2.67;;;1.83;;
32152;SDS011;18656;50.580;11.392;2023-09-18T12:03:17;5.82;;;1.92;;
32152;SDS011;18656;50.580;11.392;2023-09-18T12:05:55;4.05;;;1.80;;
32152;SDS011;18656;50.580;11.392;2023-09-18T12:08:23;2.53;;;1.65;;
32152;SDS011;18656;50.580;11.392;2023-09-18T12:10:54;5.28;;;1.88;;
32152;SDS011;18656;50.580;11.392;2023-09-18T12:13:21;4.40;;;1.88;;
32152;SDS011;18656;50.580;11.392;2023-09-18T12:15:58;4.03;;;2.20;;
32152;SDS011;18656;50.580;11.392;2023-09-18T12:18:26;4.57;;;1.83;;
32152;SDS011;18656;50.580;11.392;2023-09-18T12:20:56;5.65;;;1.83;;
32152;SDS011;18656;50.580;11.392;2023-09-18T12:23:25;3.38;;;1.70;;
32152;SDS011;18656;50.580;11.392;2023-09-18T12:25:58;7.38;;;2.05;;
32152;SDS011;18656;50.580;11.392;2023-09-18T12:28:26;2.47;;;1.52;;
32152;SDS011;18656;50.580;11.392;2023-09-18T12:30:55;5.57;;;1.75;;
32152;SDS011;18656;50.580;11.392;2023-09-18T12:33:25;12.27;;;1.80;;
32152;SDS011;18656;50.580;11.392;2023-09-18T12:35:52;6.20;;;1.63;;
32152;SDS011;18656;50.580;11.392;2023-09-18T12:38:20;3.20;;;1.58;;
32152;SDS011;18656;50.580;11.392;2023-09-18T12:40:51;6.90;;;2.28;;
32152;SDS011;18656;50.580;11.392;2023-09-18T12:43:19;9.20;;;1.75;;
32152;SDS011;18656;50.580;11.392;2023-09-18T12:45:51;17.48;;;2.08;;
32152;SDS011;18656;50.580;11.392;2023-09-18T12:48:19;7.03;;;1.23;;
32152;SDS011;18656;50.580;11.392;2023-09-18T12:50:51;4.72;;;1.27;;
32152;SDS011;18656;50.580;11.392;2023-09-18T12:53:21;3.67;;;1.20;;
32152;SDS011;18656;50.580;11.392;2023-09-18T12:55:49;7.95;;;1.48;;
32152;SDS011;18656;50.580;11.392;2023-09-18T12:58:20;7.10;;;1.40;;
32152;SDS011;18656;50.580;11.392;2023-09-18T13:00:48;3.58;;;1.55;;
32152;SDS011;18656;50.580;11.392;2023-09-18T13:03:18;3.75;;;1.30;;
32152;SDS011;18656;50.580;11.392;2023-09-18T13:05:46;2.17;;;0.90;;
32152;SDS011;18656;50.580;11.392;2023-09-18T13:08:14;2.05;;;1.20;;
32152;SDS011;18656;50.580;11.392;2023-09-18T13:10:45;9.70;;;1.30;;
32152;SDS011;18656;50.580;11.392;2023-09-18T13:13:31;8.55;;;4.22;;
32152;SDS011;18656;50.580;11.392;2023-09-18T13:16:06;4.45;;;1.00;;
32152;SDS011;18656;50.580;11.392;2023-09-18T13:18:37;4.38;;;1.00;;
32152;SDS011;18656;50.580;11.392;2023-09-18T13:21:09;2.78;;;0.90;;
32152;SDS011;18656;50.580;11.392;2023-09-18T13:23:37;7.03;;;1.23;;
32152;SDS011;18656;50.580;11.392;2023-09-18T13:26:05;6.75;;;1.00;;
32152;SDS011;18656;50.580;11.392;2023-09-18T13:28:34;2.92;;;1.20;;
32152;SDS011;18656;50.580;11.392;2023-09-18T13:31:03;5.65;;;1.13;;
32152;SDS011;18656;50.580;11.392;2023-09-18T13:33:40;4.45;;;1.20;;
32152;SDS011;18656;50.580;11.392;2023-09-18T13:36:09;2.28;;;1.35;;
32152;SDS011;18656;50.580;11.392;2023-09-18T13:38:37;2.50;;;1.42;;
32152;SDS011;18656;50.580;11.392;2023-09-18T13:41:04;2.85;;;1.10;;
32152;SDS011;18656;50.580;11.392;2023-09-18T13:43:31;3.03;;;1.08;;
32152;SDS011;18656;50.580;11.392;2023-09-18T13:46:01;9.32;;;1.60;;
32152;SDS011;18656;50.580;11.392;2023-09-18T13:48:30;1.85;;;0.98;;
32152;SDS011;18656;50.580;11.392;2023-09-18T13:50:59;3.22;;;1.50;;
32152;SDS011;18656;50.580;11.392;2023-09-18T13:53:28;3.85;;;1.30;;
32152;SDS011;18656;50.580;11.392;2023-09-18T13:55:57;3.22;;;1.20;;
32152;SDS011;18656;50.580;11.392;2023-09-18T13:58:24;5.25;;;1.10;;
32152;SDS011;18656;50.580;11.392;2023-09-18T14:00:52;3.78;;;1.25;;
32152;SDS011;18656;50.580;11.392;2023-09-18T14:03:19;1.80;;;0.82;;
32152;SDS011;18656;50.580;11.392;2023-09-18T14:05:47;4.95;;;1.10;;
32152;SDS011;18656;50.580;11.392;2023-09-18T14:08:15;3.05;;;0.95;;
32152;SDS011;18656;50.580;11.392;2023-09-18T14:10:44;1.40;;;1.02;;
32152;SDS011;18656;50.580;11.392;2023-09-18T14:13:11;6.25;;;1.20;;
32152;SDS011;18656;50.580;11.392;2023-09-18T14:15:38;2.78;;;1.02;;
32152;SDS011;18656;50.580;11.392;2023-09-18T14:18:06;6.10;;;0.90;;
32152;SDS011;18656;50.580;11.392;2023-09-18T14:20:34;7.88;;;1.35;;
32152;SDS011;18656;50.580;11.392;2023-09-18T14:23:01;4.10;;;1.10;;
32152;SDS011;18656;50.580;11.392;2023-09-18T14:25:29;2.70;;;1.10;;
32152;SDS011;18656;50.580;11.392;2023-09-18T14:27:57;9.75;;;1.73;;
32152;SDS011;18656;50.580;11.392;2023-09-18T14:30:24;5.85;;;1.20;;
32152;SDS011;18656;50.580;11.392;2023-09-18T14:32:56;3.75;;;1.23;;
32152;SDS011;18656;50.580;11.392;2023-09-18T14:35:23;2.88;;;0.85;;
32152;SDS011;18656;50.580;11.392;2023-09-18T14:37:51;2.67;;;0.80;;
32152;SDS011;18656;50.580;11.392;2023-09-18T14:40:18;3.22;;;1.05;;
32152;SDS011;18656;50.580;11.392;2023-09-18T14:42:47;3.72;;;0.93;;
32152;SDS011;18656;50.580;11.392;2023-09-18T14:45:14;4.55;;;1.10;;
32152;SDS011;18656;50.580;11.392;2023-09-18T14:47:42;5.28;;;1.00;;
32152;SDS011;18656;50.580;11.392;2023-09-18T14:50:10;5.72;;;1.10;;
32152;SDS011;18656;50.580;11.392;2023-09-18T14:52:37;1.73;;;1.20;;
32152;SDS011;18656;50.580;11.392;2023-09-18T14:55:05;3.40;;;1.10;;
32152;SDS011;18656;50.580;11.392;2023-09-18T14:57:32;3.08;;;1.10;;